createdAt,value
2019-04-10T00:02:31.354Z,4.80
2019-04-10T00:05:03.366Z,4.80
2019-04-10T00:07:35.774Z,4.70
2019-04-10T00:10:07.750Z,4.80
2019-04-10T00:12:40.337Z,4.70
2019-04-10T00:15:12.724Z,4.70
2019-04-10T00:17:45.084Z,4.70
2019-04-10T00:20:16.412Z,4.70
2019-04-10T00:22:48.434Z,4.70
2019-04-10T00:25:20.914Z,4.70
2019-04-10T00:27:52.738Z,4.70
2019-04-10T00:30:25.064Z,4.70
2019-04-10T00:32:56.426Z,4.70
2019-04-10T00:35:27.698Z,4.70
2019-04-10T00:37:59.567Z,4.70
2019-04-10T00:40:31.211Z,4.60
2019-04-10T00:43:02.581Z,4.60
2019-04-10T00:45:35.606Z,4.60
2019-04-10T00:48:07.794Z,4.60
2019-04-10T00:50:39.126Z,4.60
2019-04-10T00:53:11.256Z,4.60
2019-04-10T00:55:42.378Z,4.60
2019-04-10T00:58:14.126Z,4.60
2019-04-10T01:00:47.524Z,4.60
2019-04-10T01:03:38.076Z,4.60
2019-04-10T01:06:09.257Z,4.60
2019-04-10T01:08:40.583Z,4.60
2019-04-10T01:11:11.840Z,4.60
2019-04-10T01:13:45.255Z,4.60
2019-04-10T01:16:17.793Z,4.60
2019-04-10T01:18:49.285Z,4.60
2019-04-10T01:21:20.572Z,4.60
2019-04-10T01:23:51.843Z,4.60
2019-04-10T01:26:23.321Z,4.60
2019-04-10T01:28:55.539Z,4.60
2019-04-10T01:31:26.883Z,4.60
2019-04-10T01:33:58.035Z,4.60
2019-04-10T01:36:29.268Z,4.60
2019-04-10T01:39:00.393Z,4.60
2019-04-10T01:41:32.772Z,4.60
2019-04-10T01:44:04.150Z,4.60
2019-04-10T01:46:36.145Z,4.60
2019-04-10T01:49:07.398Z,4.50
2019-04-10T01:51:39.328Z,4.50
2019-04-10T01:54:10.994Z,4.50
2019-04-10T01:56:42.322Z,4.50
2019-04-10T01:59:13.856Z,4.50
2019-04-10T02:01:54.934Z,4.50
2019-04-10T02:04:26.824Z,4.50
2019-04-10T02:06:58.113Z,4.50
2019-04-10T02:09:29.735Z,4.50
2019-04-10T02:12:01.994Z,4.50
2019-04-10T02:14:33.203Z,4.50
2019-04-10T02:17:04.326Z,4.50
2019-04-10T02:19:36.386Z,4.40
2019-04-10T02:22:08.551Z,4.40
2019-04-10T02:24:39.776Z,4.40
2019-04-10T02:27:11.046Z,4.40
2019-04-10T02:29:42.138Z,4.40
2019-04-10T02:32:14.558Z,4.40
2019-04-10T02:34:46.897Z,4.40
2019-04-10T02:37:19.236Z,4.40
2019-04-10T02:39:55.576Z,4.40
2019-04-10T02:42:24.669Z,4.40
2019-04-10T02:44:55.785Z,4.40
2019-04-10T02:47:28.251Z,4.40
2019-04-10T02:50:00.728Z,4.40
2019-04-10T02:52:32.955Z,4.30
2019-04-10T02:55:05.997Z,4.30
2019-04-10T02:57:38.574Z,4.30
2019-04-10T03:00:10.886Z,4.30
2019-04-10T03:02:42.363Z,4.30
2019-04-10T03:05:13.626Z,4.30
2019-04-10T03:07:48.176Z,4.30
2019-04-10T03:10:27.695Z,4.30
2019-04-10T03:12:52.594Z,4.20
2019-04-10T03:15:25.199Z,4.30
2019-04-10T03:17:56.629Z,4.20
2019-04-10T03:20:30.019Z,4.20
2019-04-10T03:23:01.148Z,4.20
2019-04-10T03:25:33.379Z,4.20
2019-04-10T03:28:05.070Z,4.20
2019-04-10T03:30:39.408Z,4.20
2019-04-10T03:33:32.402Z,4.20
2019-04-10T03:36:01.629Z,4.10
2019-04-10T03:38:32.692Z,4.10
2019-04-10T03:41:04.085Z,4.10
2019-04-10T03:43:36.129Z,4.20
2019-04-10T03:46:07.316Z,4.20
2019-04-10T03:48:38.939Z,4.20
2019-04-10T03:51:10.201Z,4.20
2019-04-10T03:53:42.441Z,4.20
2019-04-10T03:56:13.837Z,4.20
2019-04-10T03:58:44.962Z,4.10
2019-04-10T04:01:16.523Z,4.10
2019-04-10T04:03:48.903Z,4.10
2019-04-10T04:06:20.087Z,4.10
2019-04-10T04:09:01.688Z,4.10
2019-04-10T04:11:23.924Z,4.10
2019-04-10T04:13:55.551Z,4.10
2019-04-10T04:16:27.890Z,4.00
2019-04-10T04:18:59.744Z,4.00
2019-04-10T04:21:30.817Z,4.00
2019-04-10T04:24:01.824Z,4.00
2019-04-10T04:26:32.885Z,4.00
2019-04-10T04:29:03.934Z,4.00
2019-04-10T04:31:35.398Z,4.00
2019-04-10T04:34:07.543Z,4.00
2019-04-10T04:36:38.688Z,4.00
2019-04-10T04:39:20.969Z,4.00
2019-04-10T04:41:44.322Z,4.00
2019-04-10T04:44:15.432Z,4.00
2019-04-10T04:46:46.499Z,4.00
2019-04-10T04:49:18.180Z,4.00
2019-04-10T04:51:50.467Z,4.00
2019-04-10T04:54:21.683Z,4.00
2019-04-10T04:56:52.794Z,4.10
2019-04-10T04:59:23.967Z,4.00
2019-04-10T05:01:55.061Z,4.10
2019-04-10T05:04:27.048Z,4.00
2019-04-10T05:06:59.952Z,4.00
2019-04-10T05:09:35.625Z,4.00
2019-04-10T05:12:04.786Z,4.00
2019-04-10T05:14:35.972Z,4.00
2019-04-10T05:17:08.040Z,4.10
2019-04-10T05:19:39.278Z,4.00
2019-04-10T05:22:10.667Z,4.10
2019-04-10T05:24:42.485Z,4.10
2019-04-10T05:27:14.134Z,4.10
2019-04-10T05:29:45.332Z,4.10
2019-04-10T05:32:16.493Z,4.10
2019-04-10T05:34:47.658Z,4.20
2019-04-10T05:37:19.143Z,4.20
2019-04-10T05:39:52.187Z,4.20
2019-04-10T05:42:23.333Z,4.20
2019-04-10T05:44:54.457Z,4.20
2019-04-10T05:47:26.211Z,4.20
2019-04-10T05:49:57.691Z,4.30
2019-04-10T05:52:28.994Z,4.30
2019-04-10T05:55:00.046Z,4.30
2019-04-10T05:57:31.118Z,4.30
2019-04-10T06:00:02.730Z,4.40
2019-04-10T06:02:36.232Z,4.50
2019-04-10T06:05:07.910Z,4.60
2019-04-10T06:07:39.252Z,4.60
2019-04-10T06:10:10.805Z,4.70
2019-04-10T06:12:42.680Z,4.70
2019-04-10T06:15:14.775Z,4.70
2019-04-10T06:17:46.968Z,4.70
2019-04-10T06:20:18.463Z,4.80
2019-04-10T06:22:51.254Z,4.80
2019-04-10T06:25:24.775Z,4.80
2019-04-10T06:27:55.155Z,4.90
2019-04-10T06:30:26.283Z,4.90
2019-04-10T06:32:57.904Z,4.90
2019-04-10T06:35:30.135Z,5.00
2019-04-10T06:38:02.348Z,5.00
2019-04-10T06:40:33.663Z,5.10
2019-04-10T06:43:04.764Z,5.20
2019-04-10T06:45:36.129Z,5.20
2019-04-10T06:48:07.411Z,5.30
2019-04-10T06:50:39.246Z,5.30
2019-04-10T06:53:10.895Z,5.40
2019-04-10T06:55:42.658Z,5.40
2019-04-10T06:58:14.022Z,5.50
2019-04-10T07:00:49.748Z,5.60
2019-04-10T07:03:18.945Z,5.60
2019-04-10T07:06:04.855Z,5.70
2019-04-10T07:08:25.983Z,5.70
2019-04-10T07:11:05.103Z,5.80
2019-04-10T07:13:30.279Z,5.90
2019-04-10T07:16:04.134Z,6.00
2019-04-10T07:18:38.219Z,6.00
2019-04-10T07:21:09.090Z,6.10
2019-04-10T07:23:40.771Z,6.20
2019-04-10T07:26:14.552Z,6.20
2019-04-10T07:28:46.423Z,6.30
2019-04-10T07:31:17.741Z,6.40
2019-04-10T07:33:50.769Z,6.50
2019-04-10T07:36:23.199Z,6.50
2019-04-10T07:38:56.256Z,6.60
2019-04-10T07:41:27.312Z,6.70
2019-04-10T07:43:58.731Z,6.80
2019-04-10T07:46:31.119Z,6.80
2019-04-10T07:49:02.960Z,6.80
2019-04-10T07:51:34.222Z,7.00
2019-04-10T07:54:06.210Z,7.10
2019-04-10T07:56:37.605Z,7.20
2019-04-10T07:59:08.860Z,7.30
2019-04-10T08:01:41.985Z,7.40
2019-04-10T08:04:14.519Z,7.50
2019-04-10T08:06:46.815Z,7.70
2019-04-10T08:09:18.891Z,7.80
2019-04-10T08:11:50.987Z,7.90
2019-04-10T08:14:24.523Z,7.80
2019-04-10T08:16:55.812Z,7.70
2019-04-10T08:19:29.102Z,7.70
2019-04-10T08:21:59.932Z,7.60
2019-04-10T08:24:32.206Z,7.50
2019-04-10T08:27:03.488Z,7.60
2019-04-10T08:29:34.628Z,7.80
2019-04-10T08:32:05.950Z,7.90
2019-04-10T08:34:37.388Z,8.00
2019-04-10T08:37:08.699Z,8.00
2019-04-10T08:39:42.921Z,8.00
2019-04-10T08:42:12.825Z,8.00
2019-04-10T08:44:44.520Z,8.00
2019-04-10T08:47:15.755Z,8.20
2019-04-10T08:49:47.391Z,8.10
2019-04-10T08:52:18.558Z,8.10
2019-04-10T08:54:49.730Z,8.10
2019-04-10T08:57:21.486Z,8.30
2019-04-10T08:59:52.742Z,8.40
2019-04-10T09:02:24.149Z,8.50
2019-04-10T09:04:55.349Z,8.50
2019-04-10T09:07:26.392Z,8.40
2019-04-10T09:09:58.277Z,8.40
2019-04-10T09:12:29.630Z,8.50
2019-04-10T09:15:02.073Z,8.30
2019-04-10T09:17:35.545Z,8.20
2019-04-10T09:20:08.806Z,8.20
2019-04-10T09:23:05.804Z,8.20
2019-04-10T09:25:13.755Z,8.30
2019-04-10T09:27:47.140Z,8.60
2019-04-10T09:30:18.508Z,8.70
2019-04-10T09:32:52.790Z,8.70
2019-04-10T09:35:24.643Z,8.70
2019-04-10T09:37:56.645Z,8.70
2019-04-10T09:40:32.101Z,8.70
2019-04-10T09:43:03.311Z,8.70
2019-04-10T09:45:35.057Z,8.70
2019-04-10T09:48:06.902Z,8.80
2019-04-10T09:50:38.208Z,8.80
2019-04-10T09:53:10.967Z,8.80
2019-04-10T09:55:42.573Z,8.90
2019-04-10T09:58:14.828Z,8.90
2019-04-10T10:00:46.397Z,9.00
2019-04-10T10:03:17.605Z,9.10
2019-04-10T10:05:51.521Z,9.10
2019-04-10T10:08:22.774Z,9.10
2019-04-10T10:10:54.062Z,9.10
2019-04-10T10:13:25.600Z,9.20
2019-04-10T10:15:56.893Z,9.30
2019-04-10T10:18:27.988Z,9.40
2019-04-10T10:20:59.876Z,9.40
2019-04-10T10:23:31.042Z,9.50
2019-04-10T10:26:02.335Z,9.40
2019-04-10T10:28:35.365Z,9.20
2019-04-10T10:31:06.697Z,9.10
2019-04-10T10:33:38.209Z,9.20
2019-04-10T10:36:09.622Z,9.30
2019-04-10T10:38:41.166Z,9.20
2019-04-10T10:41:13.584Z,9.10
2019-04-10T10:43:44.715Z,9.20
2019-04-10T10:46:15.898Z,9.30
2019-04-10T10:48:48.195Z,9.50
2019-04-10T10:51:20.414Z,9.60
2019-04-10T10:53:52.498Z,9.60
2019-04-10T10:56:24.448Z,9.40
2019-04-10T10:58:57.777Z,9.30
2019-04-10T11:01:29.487Z,9.30
2019-04-10T11:04:00.783Z,9.20
2019-04-10T11:06:33.080Z,9.20
2019-04-10T11:09:10.217Z,9.10
2019-04-10T11:11:43.042Z,9.10
2019-04-10T11:14:15.062Z,9.20
2019-04-10T11:16:47.025Z,9.30
2019-04-10T11:19:19.715Z,9.40
2019-04-10T11:21:51.116Z,9.50
2019-04-10T11:24:25.496Z,9.50
2019-04-10T11:26:57.669Z,9.60
2019-04-10T11:29:29.076Z,9.60
2019-04-10T11:32:00.293Z,9.60
2019-04-10T11:34:32.124Z,9.50
2019-04-10T11:37:21.583Z,9.40
2019-04-10T11:39:43.119Z,9.30
2019-04-10T11:42:12.144Z,9.30
2019-04-10T11:44:46.564Z,9.30
2019-04-10T11:47:17.411Z,9.40
2019-04-10T11:49:49.591Z,9.60
2019-04-10T11:55:04.545Z,9.60
2019-04-10T11:57:30.201Z,9.50
2019-04-10T12:00:01.219Z,9.40
2019-04-10T12:02:34.583Z,9.40
2019-04-10T12:05:10.925Z,9.50
2019-04-10T12:12:45.899Z,9.80
2019-04-10T12:15:17.261Z,9.90
2019-04-10T12:17:48.799Z,10.00
2019-04-10T12:20:22.100Z,9.90
2019-04-10T12:22:54.509Z,10.00
2019-04-10T12:25:27.118Z,10.00
2019-04-10T12:27:58.578Z,10.10
2019-04-10T12:30:31.091Z,10.30
2019-04-10T12:33:03.242Z,10.40
2019-04-10T12:35:34.499Z,10.40
2019-04-10T12:38:09.904Z,10.50
2019-04-10T12:40:40.505Z,10.40
2019-04-10T12:43:12.645Z,10.60
2019-04-10T12:45:44.432Z,10.60
2019-04-10T12:48:16.708Z,10.60
2019-04-10T12:50:47.887Z,10.30
2019-04-10T12:53:19.189Z,10.40
2019-04-10T12:55:51.398Z,10.50
2019-04-10T12:58:22.669Z,10.70
2019-04-10T13:00:54.065Z,10.90
2019-04-10T13:03:27.297Z,10.90
2019-04-10T13:06:01.923Z,10.80
2019-04-10T13:08:51.117Z,10.80
2019-04-10T13:11:06.056Z,10.90
2019-04-10T13:13:37.997Z,10.90
2019-04-10T13:16:09.890Z,10.90
2019-04-10T13:18:41.263Z,10.50
2019-04-10T13:21:12.574Z,10.40
2019-04-10T13:23:44.763Z,10.30
2019-04-10T13:26:16.018Z,10.20
2019-04-10T13:28:47.693Z,10.30
2019-04-10T13:31:19.306Z,10.30
2019-04-10T13:33:51.051Z,10.30
2019-04-10T13:36:23.808Z,10.30
2019-04-10T13:38:56.350Z,10.20
2019-04-10T13:41:28.246Z,10.20
2019-04-10T13:44:00.597Z,10.20
2019-04-10T13:46:33.798Z,10.20
2019-04-10T13:49:04.724Z,10.20
2019-04-10T13:51:35.980Z,10.10
2019-04-10T13:54:07.163Z,10.10
2019-04-10T13:56:39.228Z,10.00
2019-04-10T13:59:11.060Z,10.00
2019-04-10T14:01:42.443Z,9.90
2019-04-10T14:04:14.618Z,9.90
2019-04-10T14:06:48.811Z,9.90
2019-04-10T14:09:31.108Z,9.80
2019-04-10T14:11:53.379Z,9.70
2019-04-10T14:14:24.749Z,9.70
2019-04-10T14:16:57.172Z,9.60
2019-04-10T14:19:31.854Z,9.60
2019-04-10T14:22:03.291Z,9.60
2019-04-10T14:24:42.898Z,9.60
2019-04-10T14:27:16.201Z,9.50
2019-04-10T14:29:48.975Z,9.50
2019-04-10T14:32:35.626Z,9.50
2019-04-10T14:35:09.976Z,9.50
2019-04-10T14:37:41.367Z,9.60
2019-04-10T14:40:13.608Z,9.60
2019-04-10T14:42:44.884Z,9.50
2019-04-10T14:45:17.210Z,9.40
2019-04-10T14:47:49.738Z,9.30
2019-04-10T14:50:21.916Z,9.20
2019-04-10T14:52:53.956Z,9.00
2019-04-10T14:55:25.343Z,8.90
2019-04-10T14:57:56.760Z,8.90
2019-04-10T15:00:39.203Z,9.00
2019-04-10T15:03:11.831Z,9.00
2019-04-10T15:05:50.254Z,9.00
2019-04-10T15:08:17.616Z,9.00
2019-04-10T15:10:49.528Z,9.00
2019-04-10T15:13:22.847Z,9.00
2019-04-10T15:15:54.604Z,9.10
2019-04-10T15:18:26.769Z,9.10
2019-04-10T15:21:00.623Z,9.00
2019-04-10T15:23:33.709Z,9.00
2019-04-10T15:26:05.989Z,9.00
2019-04-10T15:28:37.774Z,9.10
2019-04-10T15:31:09.250Z,9.00
2019-04-10T15:33:40.811Z,9.10
2019-04-10T15:36:12.225Z,9.10
2019-04-10T15:38:44.365Z,9.10
2019-04-10T15:41:16.917Z,9.10
2019-04-10T15:43:49.714Z,9.10
2019-04-10T15:46:21.430Z,9.20
2019-04-10T15:48:52.939Z,9.10
2019-04-10T15:51:25.598Z,9.00
2019-04-10T15:53:57.182Z,9.00
2019-04-10T15:56:29.695Z,8.80
2019-04-10T15:59:01.814Z,8.80
2019-04-10T16:01:33.627Z,8.70
2019-04-10T16:04:05.266Z,8.60
2019-04-10T16:06:37.608Z,8.60
2019-04-10T16:09:09.292Z,8.50
2019-04-10T16:11:46.883Z,8.50
2019-04-10T16:14:23.253Z,8.50
2019-04-10T16:17:19.345Z,8.40
2019-04-10T16:20:15.764Z,8.40
2019-04-10T16:22:56.790Z,8.30
2019-04-10T16:25:29.945Z,8.30
2019-04-10T16:28:04.130Z,8.20
2019-04-10T16:30:35.385Z,8.20
2019-04-10T16:33:07.216Z,8.10
2019-04-10T16:35:39.951Z,8.10
2019-04-10T16:38:12.284Z,8.10
2019-04-10T16:40:43.893Z,8.10
2019-04-10T16:43:15.991Z,8.00
2019-04-10T16:45:48.887Z,8.00
2019-04-10T16:48:21.018Z,7.90
2019-04-10T16:50:52.440Z,7.90
2019-04-10T16:53:23.715Z,7.90
2019-04-10T16:55:56.866Z,7.90
2019-04-10T16:58:29.733Z,7.80
2019-04-10T17:01:02.303Z,7.80
2019-04-10T17:03:33.903Z,7.70
2019-04-10T17:06:06.064Z,7.70
2019-04-10T17:08:38.845Z,7.70
2019-04-10T17:11:14.584Z,7.70
2019-04-10T17:13:46.709Z,7.60
2019-04-10T17:16:18.382Z,7.50
2019-04-10T17:18:49.800Z,7.50
2019-04-10T17:21:21.473Z,7.40
2019-04-10T17:23:53.327Z,7.40
2019-04-10T17:26:24.799Z,7.40
2019-04-10T17:28:57.183Z,7.40
2019-04-10T17:31:28.676Z,7.30
2019-04-10T17:34:00.631Z,7.30
2019-04-10T17:36:34.838Z,7.20
2019-04-10T17:39:11.606Z,7.20
2019-04-10T17:41:43.888Z,7.20
2019-04-10T17:44:15.822Z,7.10
2019-04-10T17:46:47.382Z,7.10
2019-04-10T17:49:19.279Z,7.00
2019-04-10T17:51:52.357Z,7.00
2019-04-10T17:54:24.961Z,6.90
2019-04-10T17:56:56.896Z,6.90
2019-04-10T17:59:30.123Z,6.90
2019-04-10T18:02:05.420Z,6.80
2019-04-10T18:04:37.926Z,6.80
2019-04-10T18:07:10.084Z,6.80
2019-04-10T18:09:43.004Z,6.70
2019-04-10T18:12:14.549Z,6.70
2019-04-10T18:14:47.124Z,6.70
2019-04-10T18:17:19.771Z,6.70
2019-04-10T18:19:52.225Z,6.70
2019-04-10T18:22:24.715Z,6.70
2019-04-10T18:24:56.092Z,6.70
2019-04-10T18:27:28.792Z,6.60
2019-04-10T18:30:00.083Z,6.60
2019-04-10T18:32:31.786Z,6.60
2019-04-10T18:35:04.573Z,6.60
2019-04-10T18:37:37.068Z,6.60
2019-04-10T18:40:08.641Z,6.60
2019-04-10T18:42:40.015Z,6.60
2019-04-10T18:45:11.593Z,6.60
2019-04-10T18:47:44.053Z,6.60
2019-04-10T18:50:16.131Z,6.60
2019-04-10T18:52:47.749Z,6.60
2019-04-10T18:55:19.134Z,6.60
2019-04-10T18:57:51.356Z,6.60
2019-04-10T19:00:54.734Z,6.60
2019-04-10T19:03:55.009Z,6.50
2019-04-10T19:06:26.799Z,6.50
2019-04-10T19:09:07.671Z,6.50
2019-04-10T19:11:35.066Z,6.60
2019-04-10T19:14:05.968Z,6.60
2019-04-10T19:16:41.564Z,6.60
2019-04-10T19:19:12.943Z,6.50
2019-04-10T19:21:44.440Z,6.50
2019-04-10T19:24:15.739Z,6.50
2019-04-10T19:26:47.448Z,6.50
2019-04-10T19:29:18.864Z,6.50
2019-04-10T19:31:58.201Z,6.50
2019-04-10T19:34:29.594Z,6.50
2019-04-10T19:37:00.967Z,6.40
2019-04-10T19:39:32.482Z,6.40
2019-04-10T19:42:04.878Z,6.40
2019-04-10T19:44:37.265Z,6.40
2019-04-10T19:47:08.451Z,6.40
2019-04-10T19:49:40.047Z,6.30
2019-04-10T19:52:12.236Z,6.30
2019-04-10T19:54:43.490Z,6.30
2019-04-10T19:57:15.289Z,6.30
2019-04-10T19:59:46.859Z,6.20
2019-04-10T20:02:19.064Z,6.20
2019-04-10T20:04:50.570Z,6.20
2019-04-10T20:07:22.191Z,6.10
2019-04-10T20:09:53.339Z,6.10
2019-04-10T20:12:24.723Z,6.10
2019-04-10T20:14:56.032Z,6.00
2019-04-10T20:17:28.253Z,6.00
2019-04-10T20:19:59.889Z,6.00
2019-04-10T20:22:31.356Z,5.90
2019-04-10T20:25:02.581Z,5.90
2019-04-10T20:27:36.150Z,5.80
2019-04-10T20:30:08.361Z,5.80
2019-04-10T20:32:40.486Z,5.80
2019-04-10T20:35:11.955Z,5.80
2019-04-10T20:37:43.262Z,5.70
2019-04-10T20:40:15.834Z,5.70
2019-04-10T20:42:47.413Z,5.70
2019-04-10T20:45:21.120Z,5.60
2019-04-10T20:47:52.539Z,5.50
2019-04-10T20:50:23.857Z,5.50
2019-04-10T20:52:55.797Z,5.50
2019-04-10T20:55:27.960Z,5.50
2019-04-10T20:57:59.693Z,5.40
2019-04-10T21:00:34.511Z,5.30
2019-04-10T21:03:05.628Z,5.40
2019-04-10T21:05:36.916Z,5.40
2019-04-10T21:08:09.391Z,5.30
2019-04-10T21:10:40.949Z,5.30
2019-04-10T21:13:12.950Z,5.30
2019-04-10T21:15:44.427Z,5.30
2019-04-10T21:18:15.565Z,5.30
2019-04-10T21:20:47.193Z,5.20
2019-04-10T21:23:19.397Z,5.20
2019-04-10T21:25:51.878Z,5.20
2019-04-10T21:28:24.205Z,5.20
2019-04-10T21:31:14.312Z,5.10
2019-04-10T21:34:19.797Z,5.10
2019-04-10T21:36:51.194Z,5.10
2019-04-10T21:39:22.661Z,5.00
2019-04-10T21:41:55.597Z,5.00
2019-04-10T21:44:27.188Z,5.00
2019-04-10T21:46:59.323Z,5.00
2019-04-10T21:49:30.934Z,5.00
2019-04-10T21:52:02.235Z,4.90
2019-04-10T21:54:34.657Z,4.90
2019-04-10T21:57:07.502Z,4.90
2019-04-10T21:59:39.845Z,4.90
2019-04-10T22:02:11.582Z,4.80
2019-04-10T22:04:43.474Z,4.80
2019-04-10T22:07:29.098Z,4.80
2019-04-10T22:10:20.649Z,4.80
2019-04-10T22:12:53.314Z,4.80
2019-04-10T22:15:44.915Z,4.80
2019-04-10T22:18:17.003Z,4.70
2019-04-10T22:20:48.285Z,4.70
2019-04-10T22:23:20.200Z,4.70
2019-04-10T22:25:52.233Z,4.70
2019-04-10T22:28:23.737Z,4.80
2019-04-10T22:30:55.074Z,4.70
2019-04-10T22:33:26.339Z,4.70
2019-04-10T22:35:58.182Z,4.70
2019-04-10T22:38:29.709Z,4.70
2019-04-10T22:41:01.037Z,4.60
2019-04-10T22:43:32.170Z,4.70
2019-04-10T22:46:04.554Z,4.70
2019-04-10T22:48:37.178Z,4.60
2019-04-10T22:51:09.707Z,4.70
2019-04-10T22:53:41.922Z,4.60
2019-04-10T22:56:13.719Z,4.60
2019-04-10T22:58:45.628Z,4.60
2019-04-10T23:01:17.205Z,4.60
2019-04-10T23:03:49.377Z,4.60
2019-04-10T23:06:21.201Z,4.60
2019-04-10T23:08:52.658Z,4.50
2019-04-10T23:11:31.692Z,4.50
2019-04-10T23:13:56.660Z,4.50
2019-04-10T23:16:28.419Z,4.50
2019-04-10T23:18:59.809Z,4.50
2019-04-10T23:21:30.913Z,4.50
2019-04-10T23:24:03.297Z,4.50
2019-04-10T23:26:35.395Z,4.50
2019-04-10T23:29:08.406Z,4.50
2019-04-10T23:31:39.772Z,4.50
2019-04-10T23:34:12.478Z,4.50
2019-04-10T23:36:44.417Z,4.50
2019-04-10T23:39:16.339Z,4.50
2019-04-10T23:41:50.563Z,4.40
2019-04-10T23:44:20.684Z,4.40
2019-04-10T23:46:51.877Z,4.40
2019-04-10T23:49:24.063Z,4.40
2019-04-10T23:51:55.709Z,4.40
2019-04-10T23:54:27.138Z,4.30
2019-04-10T23:56:58.174Z,4.40
2019-04-10T23:59:29.252Z,4.40
